Tropical Cyclones
[Index]
Main Index Home Page Stock Weather Photos Extreme Storms Discussion Storm News and Storm Chasing Reports Tropical Cyclones / Hurricanes / Typhoons Weather Data and Links Wild Fires / Bushfires Weather Observation Techniques Weather Picture Catalogue Tornado Pictures and Reports Stock Video Footage and DVDs for sale
Season 2002-2003 Tropical Cyclone ERICA Track Map
Season 2002-2003 Summaries (Operational Data): [AU] [SIO] [SPAC] [SH]
<<- Previous TC | 2002-2003 Season | Next TC ->>

click for intensity scale information  Lat/long Grid: Show Hide

 Date Labels: Show Hide

Operational Tropical Cyclone Data : JTWC Advisories

Name: ERICA
Number: 0322

02 Mar 2003 20:00 UTC to 16 Mar 2003 18:00 UTC

    date/time    lat    long     hPa   cat  kts
2003-03-02 20   20.0   149.5    1000    1    40          
2003-03-03 02   20.0   148.0    1002         30          
2003-03-04 00   20.5   152.5    1000    1    40          
2003-03-04 06   20.5   154.0     995    1    45          
2003-03-04 12   20.6   154.4     995    1    45          
2003-03-04 18   20.5   154.6     985    2    55          
2003-03-05 00   20.4   154.7     985    2    55          
2003-03-05 06   19.4   155.0     985    2    55          
2003-03-05 12   19.2   155.0     985    2    55          
2003-03-05 18   18.1   155.0     990    1    45          
2003-03-06 00   17.5   154.5     990    1    45          
2003-03-06 06   16.8   154.0     990    1    45          
2003-03-06 12   16.1   153.7     990    1    40          
2003-03-06 18   15.5   153.0     995    1    40          
2003-03-06 22   15.2   154.1     997         30          
2003-03-08 06   12.5   155.0    1000         30          
2003-03-08 12   12.5   155.0    1000         30          
2003-03-08 18   12.2   155.2    1000         30          
2003-03-09 00   13.0   157.0    1000         30          
2003-03-09 06   13.0   157.0     998         30          
2003-03-09 12   12.5   155.0     998         30          
2003-03-09 18   12.5   155.5     998         30          
2003-03-10 00   12.0   157.5     998         30          
2003-03-10 06   12.1   157.9     997         30          
2003-03-10 12   12.3   158.5     995    1    40          
2003-03-10 18   12.7   158.9     990    1    40          
2003-03-11 00   12.7   158.3     985    2    50          
2003-03-11 06   13.6   158.8     980    2    55          
2003-03-11 12   14.4   159.4     975    2    60          
2003-03-11 18   15.2   159.8     970    3    65          
2003-03-12 00   16.4   159.7     965    3    70          
2003-03-12 06   16.9   160.0     960    3    80          
2003-03-12 12   17.9   160.4     955    3    80          
2003-03-12 16   18.5   160.4     925    4   100          
2003-03-12 18   18.8   160.6     925    4   100          
2003-03-13 00   19.3   161.2     920    5   110          
2003-03-13 06   20.1   161.8     915    5   115          
2003-03-13 12   20.6   162.7     915    5   115          
2003-03-13 18   21.1   164.4     920    5   110          
2003-03-14 00   22.1   166.4     930    4    95          
2003-03-14 06   23.1   168.6     945    3    85          
2003-03-14 12   24.6   170.4     960    3    75          
2003-03-14 18   26.1   172.6     965    3    70          
2003-03-15 00   28.0   176.5     972    3    65          
2003-03-15 06   28.0   179.5     975    2    60          
2003-03-15 12   30.0   179.0W    980    1    35          
2003-03-15 18   31.0   174.0W    988    1    40          
2003-03-16 00   31.0   173.0W    994    1    35          
2003-03-16 06   32.0   170.0W    996    1    35          
2003-03-16 12   32.0   168.0W    998    1    35          
2003-03-16 18   33.0   167.0W   1000    1    35          
Winds are 10-min average.

Tropical cyclone tracks developed by Michael Bath using operational warnings and advisories and Google Maps.


[Australian Severe Weather index] [Copyright Notice] [Email Contacts] [Search This Site] [Privacy Policy]
Document: tropical_cyclone_erica.htm Updated: 2 May 2017